»·PEaware :: WAT169 KSFO-KLAS

WAT169 :: KSFO-KLAS

FLIGHT INFORMATION

Flight Status: Arrived
Operator:
Walker Air Transport
More flights by this operator :: More flights under this callsign
Pilot: Marty P. (27464)
Aircraft: BOEING 737-800
(B738)
More flights by this aircraft type
Origin: KSFO San Francisco Intl
United States
Destination: KLAS McCarran Intl
United States
More flights between these airports :: More routes between these airports
Route: +HYP250031 BTY SUNST4
File this flight plan on PilotEdge
Remarks:
Altitude:
(Current/Filed)
27,000ft
Speed:
(Current/Filed)
470kts
Departed: 02-May-20 08:49 PM
Arrived: 02-May-20 09:50 PM
Distance/Time
Traveled:
359nm/1:01
Distance/Time
To Go:
Arrived

Flight Plot

Page will automatically refresh every two minutes.

Flight plan parsing failed; only flown route is shown


Map Options




Map Legend


Flown Route
Filed Route
Departure Airport
Arrival Airport
Navaid (VOR, NDB)
Fix

Horizontal Profiles

Position Reports

Time Latitude Longitude Heading Altitude Ground
Speed
02-May-20 20:33 37.618835 -122.383690 280 23ft 0kts
02-May-20 20:34 37.618835 -122.383690 280 23ft 0kts
02-May-20 20:35 37.618835 -122.383690 280 23ft 0kts
02-May-20 20:36 37.618835 -122.383690 280 23ft 0kts
02-May-20 20:37 37.618835 -122.383690 280 23ft 0kts
02-May-20 20:38 37.618835 -122.383690 280 23ft 0kts
02-May-20 20:39 37.618835 -122.383690 280 23ft 0kts
02-May-20 20:40 37.618835 -122.383690 280 23ft 0kts
02-May-20 20:41 37.618622 -122.383325 338 23ft 2kts
02-May-20 20:42 37.618262 -122.383368 28 23ft 0kts
02-May-20 20:43 37.618263 -122.383368 28 23ft 0kts
02-May-20 20:44 37.619415 -122.382584 41 23ft 12kts
02-May-20 20:45 37.617648 -122.378650 173 23ft 14kts
02-May-20 20:45 37.613433 -122.380826 210 23ft 23kts
02-May-20 20:47 37.609461 -122.383271 155 23ft 0kts
02-May-20 20:47 37.609075 -122.382649 103 23ft 19kts
02-May-20 20:48 37.633626 -122.365547 23 750ft 178kts
02-May-20 20:50 37.698401 -122.368736 317 3773ft 235kts
02-May-20 20:50 37.706043 -122.429403 238 6824ft 234kts
02-May-20 20:51 37.643631 -122.453621 188 10115ft 256kts
02-May-20 20:52 37.568901 -122.463289 191 12127ft 308kts
02-May-20 20:53 37.475765 -122.438375 147 13268ft 399kts
02-May-20 20:54 37.412605 -122.322003 116 15840ft 430kts
02-May-20 20:55 37.383002 -122.193593 108 17730ft 451kts
02-May-20 20:56 37.353955 -122.047559 108 20298ft 450kts
02-May-20 20:57 37.327065 -121.912905 109 22226ft 458kts
02-May-20 20:58 37.302778 -121.792017 109 23610ft 470kts
02-May-20 20:59 37.273968 -121.649446 109 25046ft 484kts
02-May-20 21:00 37.238324 -121.474304 109 26686ft 498kts
02-May-20 21:01 37.204038 -121.307119 109 27187ft 514kts
02-May-20 21:02 37.167587 -121.130284 109 27179ft 530kts
02-May-20 21:03 37.157063 -120.950511 86 27164ft 550kts
02-May-20 21:04 37.144988 -120.763012 99 27142ft 553kts
02-May-20 21:05 37.128442 -120.571158 99 27128ft 556kts
02-May-20 21:06 37.111926 -120.378762 98 27125ft 556kts
02-May-20 21:07 37.095919 -120.190918 99 27119ft 554kts
02-May-20 21:08 37.079557 -119.999665 99 27118ft 555kts
02-May-20 21:09 37.063151 -119.808338 99 27100ft 554kts
02-May-20 21:10 37.047518 -119.626127 98 27091ft 553kts
02-May-20 21:11 37.032919 -119.456067 98 27090ft 553kts
02-May-20 21:12 37.016415 -119.263104 99 27092ft 551kts
02-May-20 21:13 37.000146 -119.072752 99 27206ft 550kts
02-May-20 21:14 36.983805 -118.882317 98 27146ft 552kts
02-May-20 21:15 36.967517 -118.692619 98 27054ft 551kts
02-May-20 21:16 36.951286 -118.503688 98 27055ft 551kts
02-May-20 21:17 36.935716 -118.322382 99 27050ft 549kts
02-May-20 21:18 36.919626 -118.133964 98 27054ft 549kts
02-May-20 21:19 36.903414 -117.945070 98 27054ft 547kts
02-May-20 21:20 36.887655 -117.761718 98 27054ft 547kts
02-May-20 21:21 36.871578 -117.574750 98 27054ft 547kts
02-May-20 21:22 36.855459 -117.387374 98 27054ft 547kts
02-May-20 21:23 36.839743 -117.203689 98 27026ft 547kts
02-May-20 21:24 36.823658 -117.016247 98 26988ft 546kts
02-May-20 21:25 36.807856 -116.832208 98 26963ft 515kts
02-May-20 21:26 36.752250 -116.685871 134 26967ft 470kts
02-May-20 21:27 36.668752 -116.561332 136 26382ft 457kts
02-May-20 21:28 36.587824 -116.444728 136 24283ft 435kts
02-May-20 21:29 36.512737 -116.337866 137 22348ft 416kts
02-May-20 21:30 36.436431 -116.230210 136 20424ft 423kts
02-May-20 21:31 36.360508 -116.123705 136 18458ft 395kts
02-May-20 21:32 36.288553 -116.022984 135 17430ft 397kts
02-May-20 21:33 36.218160 -115.924349 134 16206ft 356kts
02-May-20 21:34 36.177511 -115.828230 114 15906ft 344kts
02-May-20 21:35 36.142703 -115.719933 114 14483ft 333kts
02-May-20 21:36 36.108998 -115.615549 113 13071ft 322kts
02-May-20 21:37 36.077330 -115.517428 113 12421ft 289kts
02-May-20 21:38 36.048479 -115.429135 113 11612ft 273kts
02-May-20 21:39 36.028446 -115.340656 96 11010ft 277kts
02-May-20 21:40 36.022154 -115.250217 97 10687ft 250kts
02-May-20 21:41 36.016012 -115.165513 97 9262ft 246kts
02-May-20 21:42 36.010393 -115.082270 97 7879ft 234kts
02-May-20 21:43 36.005849 -115.002805 97 5993ft 229kts
02-May-20 21:44 36.016008 -114.938035 19 5458ft 199kts
02-May-20 21:45 36.062260 -114.957128 302 4553ft 186kts
02-May-20 21:46 36.074029 -115.012538 264 3969ft 149kts
02-May-20 21:47 36.073725 -115.064505 266 3198ft 150kts
02-May-20 21:48 36.073683 -115.114496 267 2414ft 144kts
02-May-20 21:49 36.074395 -115.145190 298 2191ft 18kts
02-May-20 21:50 36.076975 -115.146561 1 2191ft 12kts
02-May-20 21:51 36.079676 -115.147585 46 2191ft 4kts
02-May-20 21:52 36.079913 -115.147059 62 2191ft 0kts

Navigation Log

Ident Type
Flight plan parsing failed, navigation log unavailable